sensor_id;sensor_type;location;lat;lon;timestamp;P1;durP1;ratioP1;P2;durP2;ratioP2
12363;SDS011;6246;50.826;4.712;2022-07-06T00:02:25;4.60;;;3.40;;
12363;SDS011;6246;50.826;4.712;2022-07-06T00:04:51;6.77;;;4.40;;
12363;SDS011;6246;50.826;4.712;2022-07-06T00:07:17;4.53;;;3.42;;
12363;SDS011;6246;50.826;4.712;2022-07-06T00:09:43;5.37;;;3.93;;
12363;SDS011;6246;50.826;4.712;2022-07-06T00:12:09;4.97;;;3.63;;
12363;SDS011;6246;50.826;4.712;2022-07-06T00:14:35;5.20;;;3.65;;
12363;SDS011;6246;50.826;4.712;2022-07-06T00:17:01;4.73;;;3.47;;
12363;SDS011;6246;50.826;4.712;2022-07-06T00:19:27;5.53;;;3.20;;
12363;SDS011;6246;50.826;4.712;2022-07-06T00:21:53;3.40;;;2.70;;
12363;SDS011;6246;50.826;4.712;2022-07-06T00:24:19;4.50;;;2.73;;
12363;SDS011;6246;50.826;4.712;2022-07-06T00:26:46;4.50;;;2.90;;
12363;SDS011;6246;50.826;4.712;2022-07-06T00:29:12;3.20;;;2.03;;
12363;SDS011;6246;50.826;4.712;2022-07-06T00:31:38;2.47;;;2.20;;
12363;SDS011;6246;50.826;4.712;2022-07-06T00:34:04;4.27;;;2.50;;
12363;SDS011;6246;50.826;4.712;2022-07-06T00:36:30;2.53;;;2.23;;
12363;SDS011;6246;50.826;4.712;2022-07-06T00:38:56;3.70;;;2.27;;
12363;SDS011;6246;50.826;4.712;2022-07-06T00:41:22;4.33;;;2.30;;
12363;SDS011;6246;50.826;4.712;2022-07-06T00:46:14;2.90;;;2.17;;
12363;SDS011;6246;50.826;4.712;2022-07-06T00:48:40;2.27;;;1.83;;
12363;SDS011;6246;50.826;4.712;2022-07-06T00:51:06;2.00;;;1.80;;
12363;SDS011;6246;50.826;4.712;2022-07-06T00:53:32;3.57;;;2.63;;
12363;SDS011;6246;50.826;4.712;2022-07-06T00:55:58;4.07;;;2.40;;
12363;SDS011;6246;50.826;4.712;2022-07-06T00:58:24;4.20;;;2.50;;
12363;SDS011;6246;50.826;4.712;2022-07-06T01:00:50;2.10;;;1.92;;
12363;SDS011;6246;50.826;4.712;2022-07-06T01:03:16;2.00;;;1.80;;
12363;SDS011;6246;50.826;4.712;2022-07-06T01:05:43;3.23;;;2.00;;
12363;SDS011;6246;50.826;4.712;2022-07-06T01:08:09;1.93;;;1.80;;
12363;SDS011;6246;50.826;4.712;2022-07-06T01:10:35;3.17;;;1.90;;
12363;SDS011;6246;50.826;4.712;2022-07-06T01:13:01;2.00;;;1.60;;
12363;SDS011;6246;50.826;4.712;2022-07-06T01:15:27;4.17;;;1.73;;
12363;SDS011;6246;50.826;4.712;2022-07-06T01:17:53;5.30;;;1.87;;
12363;SDS011;6246;50.826;4.712;2022-07-06T01:20:20;7.83;;;2.20;;
12363;SDS011;6246;50.826;4.712;2022-07-06T01:22:47;1.97;;;1.80;;
12363;SDS011;6246;50.826;4.712;2022-07-06T01:25:13;3.37;;;1.60;;
12363;SDS011;6246;50.826;4.712;2022-07-06T01:27:41;4.93;;;1.60;;
12363;SDS011;6246;50.826;4.712;2022-07-06T01:30:14;2.77;;;1.77;;
12363;SDS011;6246;50.826;4.712;2022-07-06T01:32:40;2.37;;;1.50;;
12363;SDS011;6246;50.826;4.712;2022-07-06T01:35:08;3.97;;;1.80;;
12363;SDS011;6246;50.826;4.712;2022-07-06T01:37:34;8.43;;;1.80;;
12363;SDS011;6246;50.826;4.712;2022-07-06T01:40:01;2.47;;;1.50;;
12363;SDS011;6246;50.826;4.712;2022-07-06T01:42:27;2.20;;;1.83;;
12363;SDS011;6246;50.826;4.712;2022-07-06T01:44:54;2.07;;;1.43;;
12363;SDS011;6246;50.826;4.712;2022-07-06T01:47:20;4.87;;;1.30;;
12363;SDS011;6246;50.826;4.712;2022-07-06T01:49:46;4.03;;;1.67;;
12363;SDS011;6246;50.826;4.712;2022-07-06T01:52:12;2.57;;;1.97;;
12363;SDS011;6246;50.826;4.712;2022-07-06T01:54:38;2.83;;;1.80;;
12363;SDS011;6246;50.826;4.712;2022-07-06T01:57:04;2.37;;;1.53;;
12363;SDS011;6246;50.826;4.712;2022-07-06T01:59:30;2.53;;;1.67;;
12363;SDS011;6246;50.826;4.712;2022-07-06T02:01:57;2.33;;;1.70;;
12363;SDS011;6246;50.826;4.712;2022-07-06T02:04:23;1.73;;;1.63;;
12363;SDS011;6246;50.826;4.712;2022-07-06T02:06:49;1.83;;;1.20;;
12363;SDS011;6246;50.826;4.712;2022-07-06T02:09:15;4.13;;;1.47;;
12363;SDS011;6246;50.826;4.712;2022-07-06T02:11:41;1.53;;;1.43;;
12363;SDS011;6246;50.826;4.712;2022-07-06T02:14:07;1.50;;;1.27;;
12363;SDS011;6246;50.826;4.712;2022-07-06T02:16:33;1.53;;;1.43;;
12363;SDS011;6246;50.826;4.712;2022-07-06T02:18:59;1.33;;;1.10;;
12363;SDS011;6246;50.826;4.712;2022-07-06T02:21:25;1.30;;;1.20;;
12363;SDS011;6246;50.826;4.712;2022-07-06T02:23:51;2.50;;;1.30;;
12363;SDS011;6246;50.826;4.712;2022-07-06T02:26:17;2.23;;;1.47;;
12363;SDS011;6246;50.826;4.712;2022-07-06T02:28:43;2.50;;;1.10;;
12363;SDS011;6246;50.826;4.712;2022-07-06T02:31:11;1.50;;;1.37;;
12363;SDS011;6246;50.826;4.712;2022-07-06T02:33:38;1.57;;;1.37;;
12363;SDS011;6246;50.826;4.712;2022-07-06T02:36:04;1.83;;;1.40;;
12363;SDS011;6246;50.826;4.712;2022-07-06T02:38:30;1.27;;;1.17;;
12363;SDS011;6246;50.826;4.712;2022-07-06T02:40:56;1.87;;;1.50;;
12363;SDS011;6246;50.826;4.712;2022-07-06T02:43:22;2.17;;;1.50;;
12363;SDS011;6246;50.826;4.712;2022-07-06T02:45:48;1.70;;;1.60;;
12363;SDS011;6246;50.826;4.712;2022-07-06T02:48:14;2.13;;;1.00;;
12363;SDS011;6246;50.826;4.712;2022-07-06T02:50:40;2.87;;;1.40;;
12363;SDS011;6246;50.826;4.712;2022-07-06T02:53:06;2.63;;;1.13;;
12363;SDS011;6246;50.826;4.712;2022-07-06T02:55:32;1.80;;;1.17;;
12363;SDS011;6246;50.826;4.712;2022-07-06T02:57:58;1.80;;;1.30;;
12363;SDS011;6246;50.826;4.712;2022-07-06T03:00:24;1.10;;;1.10;;
12363;SDS011;6246;50.826;4.712;2022-07-06T03:02:50;2.30;;;1.47;;
12363;SDS011;6246;50.826;4.712;2022-07-06T03:05:16;2.53;;;1.40;;
12363;SDS011;6246;50.826;4.712;2022-07-06T03:07:42;1.40;;;1.30;;
12363;SDS011;6246;50.826;4.712;2022-07-06T03:10:08;1.63;;;1.10;;
12363;SDS011;6246;50.826;4.712;2022-07-06T03:12:34;1.27;;;1.17;;
12363;SDS011;6246;50.826;4.712;2022-07-06T03:15:00;0.80;;;0.80;;
12363;SDS011;6246;50.826;4.712;2022-07-06T03:17:26;2.97;;;1.10;;
12363;SDS011;6246;50.826;4.712;2022-07-06T03:19:52;1.10;;;1.00;;
12363;SDS011;6246;50.826;4.712;2022-07-06T03:22:19;0.97;;;0.97;;
12363;SDS011;6246;50.826;4.712;2022-07-06T03:24:45;1.30;;;1.20;;
12363;SDS011;6246;50.826;4.712;2022-07-06T03:27:11;1.40;;;1.00;;
12363;SDS011;6246;50.826;4.712;2022-07-06T03:29:37;2.87;;;1.10;;
12363;SDS011;6246;50.826;4.712;2022-07-06T03:32:03;1.33;;;1.23;;
12363;SDS011;6246;50.826;4.712;2022-07-06T03:34:29;1.70;;;1.30;;
12363;SDS011;6246;50.826;4.712;2022-07-06T03:36:55;3.10;;;1.10;;
12363;SDS011;6246;50.826;4.712;2022-07-06T03:39:21;2.13;;;0.97;;
12363;SDS011;6246;50.826;4.712;2022-07-06T03:41:47;1.03;;;0.93;;
12363;SDS011;6246;50.826;4.712;2022-07-06T03:44:13;2.07;;;1.20;;
12363;SDS011;6246;50.826;4.712;2022-07-06T03:46:39;1.07;;;0.97;;
12363;SDS011;6246;50.826;4.712;2022-07-06T03:49:05;2.10;;;1.33;;
12363;SDS011;6246;50.826;4.712;2022-07-06T03:51:31;1.00;;;0.80;;
12363;SDS011;6246;50.826;4.712;2022-07-06T03:53:57;1.20;;;1.10;;
12363;SDS011;6246;50.826;4.712;2022-07-06T03:56:24;0.73;;;0.73;;
12363;SDS011;6246;50.826;4.712;2022-07-06T03:58:53;0.90;;;0.90;;
12363;SDS011;6246;50.826;4.712;2022-07-06T04:01:19;0.87;;;0.87;;
12363;SDS011;6246;50.826;4.712;2022-07-06T04:03:45;2.23;;;1.20;;
12363;SDS011;6246;50.826;4.712;2022-07-06T04:06:11;1.67;;;1.20;;
12363;SDS011;6246;50.826;4.712;2022-07-06T04:08:38;1.27;;;1.17;;
12363;SDS011;6246;50.826;4.712;2022-07-06T04:11:04;1.00;;;1.00;;
12363;SDS011;6246;50.826;4.712;2022-07-06T04:13:30;2.63;;;1.13;;
12363;SDS011;6246;50.826;4.712;2022-07-06T04:15:56;0.83;;;0.83;;
12363;SDS011;6246;50.826;4.712;2022-07-06T04:18:22;2.30;;;1.30;;
12363;SDS011;6246;50.826;4.712;2022-07-06T04:20:48;2.17;;;1.10;;
12363;SDS011;6246;50.826;4.712;2022-07-06T04:23:14;1.13;;;1.03;;
12363;SDS011;6246;50.826;4.712;2022-07-06T04:25:40;0.80;;;0.80;;
12363;SDS011;6246;50.826;4.712;2022-07-06T04:28:06;2.00;;;0.97;;
12363;SDS011;6246;50.826;4.712;2022-07-06T04:30:32;1.10;;;0.97;;
12363;SDS011;6246;50.826;4.712;2022-07-06T04:32:58;2.13;;;1.10;;
12363;SDS011;6246;50.826;4.712;2022-07-06T04:35:24;1.23;;;0.70;;
12363;SDS011;6246;50.826;4.712;2022-07-06T04:37:50;0.87;;;0.70;;
12363;SDS011;6246;50.826;4.712;2022-07-06T04:40:16;0.87;;;0.80;;
12363;SDS011;6246;50.826;4.712;2022-07-06T04:42:42;1.00;;;0.90;;
12363;SDS011;6246;50.826;4.712;2022-07-06T04:45:08;1.73;;;1.23;;
12363;SDS011;6246;50.826;4.712;2022-07-06T04:47:35;0.70;;;0.70;;
12363;SDS011;6246;50.826;4.712;2022-07-06T04:50:01;2.77;;;1.23;;
12363;SDS011;6246;50.826;4.712;2022-07-06T04:52:27;1.17;;;0.70;;
12363;SDS011;6246;50.826;4.712;2022-07-06T04:54:57;0.90;;;0.90;;
12363;SDS011;6246;50.826;4.712;2022-07-06T04:57:23;1.47;;;0.87;;
12363;SDS011;6246;50.826;4.712;2022-07-06T04:59:51;1.87;;;1.07;;
12363;SDS011;6246;50.826;4.712;2022-07-06T05:02:17;1.33;;;0.97;;
12363;SDS011;6246;50.826;4.712;2022-07-06T05:04:43;1.00;;;0.90;;
12363;SDS011;6246;50.826;4.712;2022-07-06T05:07:09;0.93;;;0.93;;
12363;SDS011;6246;50.826;4.712;2022-07-06T05:09:35;2.37;;;1.10;;
12363;SDS011;6246;50.826;4.712;2022-07-06T05:12:01;8.10;;;2.03;;
12363;SDS011;6246;50.826;4.712;2022-07-06T05:14:27;4.80;;;1.50;;
12363;SDS011;6246;50.826;4.712;2022-07-06T05:16:53;3.07;;;1.27;;
12363;SDS011;6246;50.826;4.712;2022-07-06T05:19:19;1.80;;;0.93;;
12363;SDS011;6246;50.826;4.712;2022-07-06T05:21:45;1.87;;;0.80;;
12363;SDS011;6246;50.826;4.712;2022-07-06T05:24:11;2.80;;;1.33;;
12363;SDS011;6246;50.826;4.712;2022-07-06T05:26:37;1.37;;;0.97;;
12363;SDS011;6246;50.826;4.712;2022-07-06T05:29:03;0.97;;;0.87;;
12363;SDS011;6246;50.826;4.712;2022-07-06T05:31:29;1.80;;;1.00;;
12363;SDS011;6246;50.826;4.712;2022-07-06T05:33:55;2.23;;;1.23;;
12363;SDS011;6246;50.826;4.712;2022-07-06T05:36:21;0.73;;;0.70;;
12363;SDS011;6246;50.826;4.712;2022-07-06T05:38:47;1.40;;;1.17;;
12363;SDS011;6246;50.826;4.712;2022-07-06T05:41:13;2.20;;;1.13;;
12363;SDS011;6246;50.826;4.712;2022-07-06T05:43:39;1.10;;;0.90;;
12363;SDS011;6246;50.826;4.712;2022-07-06T05:46:05;1.33;;;1.10;;
12363;SDS011;6246;50.826;4.712;2022-07-06T05:48:31;1.03;;;0.73;;
12363;SDS011;6246;50.826;4.712;2022-07-06T05:51:16;2.17;;;1.20;;
12363;SDS011;6246;50.826;4.712;2022-07-06T05:53:42;2.10;;;1.00;;
12363;SDS011;6246;50.826;4.712;2022-07-06T05:56:08;2.70;;;0.90;;
12363;SDS011;6246;50.826;4.712;2022-07-06T05:58:34;0.83;;;0.83;;
12363;SDS011;6246;50.826;4.712;2022-07-06T06:01:00;1.70;;;1.03;;
12363;SDS011;6246;50.826;4.712;2022-07-06T06:03:26;1.40;;;1.10;;
12363;SDS011;6246;50.826;4.712;2022-07-06T06:05:52;1.00;;;1.00;;
12363;SDS011;6246;50.826;4.712;2022-07-06T06:08:18;1.80;;;1.20;;
12363;SDS011;6246;50.826;4.712;2022-07-06T06:10:45;1.10;;;1.00;;
12363;SDS011;6246;50.826;4.712;2022-07-06T06:13:11;1.20;;;0.97;;
12363;SDS011;6246;50.826;4.712;2022-07-06T06:15:37;0.70;;;0.70;;
12363;SDS011;6246;50.826;4.712;2022-07-06T06:18:03;1.13;;;1.03;;
12363;SDS011;6246;50.826;4.712;2022-07-06T06:20:29;0.97;;;0.97;;
12363;SDS011;6246;50.826;4.712;2022-07-06T06:22:56;2.90;;;1.10;;
12363;SDS011;6246;50.826;4.712;2022-07-06T06:25:29;0.90;;;0.80;;
12363;SDS011;6246;50.826;4.712;2022-07-06T06:27:55;1.07;;;0.97;;
12363;SDS011;6246;50.826;4.712;2022-07-06T06:30:21;1.60;;;0.90;;
12363;SDS011;6246;50.826;4.712;2022-07-06T06:32:47;1.30;;;1.20;;
12363;SDS011;6246;50.826;4.712;2022-07-06T06:35:13;0.90;;;0.90;;
12363;SDS011;6246;50.826;4.712;2022-07-06T06:37:39;1.43;;;1.10;;
12363;SDS011;6246;50.826;4.712;2022-07-06T06:40:07;0.67;;;0.67;;
12363;SDS011;6246;50.826;4.712;2022-07-06T06:42:35;1.27;;;1.20;;
12363;SDS011;6246;50.826;4.712;2022-07-06T06:45:01;1.03;;;0.80;;
12363;SDS011;6246;50.826;4.712;2022-07-06T06:47:27;1.93;;;0.80;;
12363;SDS011;6246;50.826;4.712;2022-07-06T06:49:53;1.53;;;1.10;;
12363;SDS011;6246;50.826;4.712;2022-07-06T06:52:19;1.07;;;1.00;;
12363;SDS011;6246;50.826;4.712;2022-07-06T06:54:45;0.80;;;0.80;;
12363;SDS011;6246;50.826;4.712;2022-07-06T06:57:11;2.40;;;0.97;;
12363;SDS011;6246;50.826;4.712;2022-07-06T06:59:37;0.70;;;0.70;;
12363;SDS011;6246;50.826;4.712;2022-07-06T07:02:03;2.20;;;1.20;;
12363;SDS011;6246;50.826;4.712;2022-07-06T07:04:29;1.67;;;1.00;;
12363;SDS011;6246;50.826;4.712;2022-07-06T07:06:56;1.27;;;1.17;;
12363;SDS011;6246;50.826;4.712;2022-07-06T07:09:22;1.30;;;1.00;;
12363;SDS011;6246;50.826;4.712;2022-07-06T07:11:48;1.40;;;0.90;;
12363;SDS011;6246;50.826;4.712;2022-07-06T07:14:14;1.00;;;1.00;;
12363;SDS011;6246;50.826;4.712;2022-07-06T07:16:40;2.07;;;1.23;;
12363;SDS011;6246;50.826;4.712;2022-07-06T07:19:06;2.00;;;1.20;;
12363;SDS011;6246;50.826;4.712;2022-07-06T07:21:32;1.50;;;0.80;;
12363;SDS011;6246;50.826;4.712;2022-07-06T07:23:58;2.80;;;0.97;;
12363;SDS011;6246;50.826;4.712;2022-07-06T07:26:24;1.13;;;1.03;;
12363;SDS011;6246;50.826;4.712;2022-07-06T07:28:50;0.93;;;0.90;;
12363;SDS011;6246;50.826;4.712;2022-07-06T07:31:16;1.60;;;0.80;;
12363;SDS011;6246;50.826;4.712;2022-07-06T07:33:42;1.10;;;1.00;;
12363;SDS011;6246;50.826;4.712;2022-07-06T07:36:08;2.37;;;0.93;;
12363;SDS011;6246;50.826;4.712;2022-07-06T07:38:34;0.97;;;0.80;;
12363;SDS011;6246;50.826;4.712;2022-07-06T07:41:00;0.90;;;0.90;;
12363;SDS011;6246;50.826;4.712;2022-07-06T07:43:26;0.60;;;0.60;;
12363;SDS011;6246;50.826;4.712;2022-07-06T07:45:52;2.00;;;1.10;;
12363;SDS011;6246;50.826;4.712;2022-07-06T07:48:18;1.30;;;1.00;;
12363;SDS011;6246;50.826;4.712;2022-07-06T07:50:45;0.60;;;0.60;;
12363;SDS011;6246;50.826;4.712;2022-07-06T07:53:11;0.87;;;0.87;;
12363;SDS011;6246;50.826;4.712;2022-07-06T07:55:37;0.70;;;0.70;;
12363;SDS011;6246;50.826;4.712;2022-07-06T07:58:03;1.83;;;1.07;;
12363;SDS011;6246;50.826;4.712;2022-07-06T08:00:29;0.93;;;0.90;;
12363;SDS011;6246;50.826;4.712;2022-07-06T08:02:55;0.80;;;0.80;;
12363;SDS011;6246;50.826;4.712;2022-07-06T08:05:21;1.80;;;1.00;;
12363;SDS011;6246;50.826;4.712;2022-07-06T08:07:47;1.20;;;1.10;;
12363;SDS011;6246;50.826;4.712;2022-07-06T08:10:13;1.27;;;0.80;;
12363;SDS011;6246;50.826;4.712;2022-07-06T08:12:39;0.80;;;0.80;;
12363;SDS011;6246;50.826;4.712;2022-07-06T08:15:06;2.20;;;0.90;;
12363;SDS011;6246;50.826;4.712;2022-07-06T08:17:32;0.93;;;0.83;;
12363;SDS011;6246;50.826;4.712;2022-07-06T08:19:58;0.80;;;0.80;;
12363;SDS011;6246;50.826;4.712;2022-07-06T08:22:24;1.80;;;0.80;;
12363;SDS011;6246;50.826;4.712;2022-07-06T08:24:50;1.00;;;1.00;;
12363;SDS011;6246;50.826;4.712;2022-07-06T08:27:16;1.40;;;0.80;;
12363;SDS011;6246;50.826;4.712;2022-07-06T08:29:42;1.67;;;1.10;;
12363;SDS011;6246;50.826;4.712;2022-07-06T08:32:09;0.90;;;0.90;;
12363;SDS011;6246;50.826;4.712;2022-07-06T08:34:35;1.00;;;0.90;;
12363;SDS011;6246;50.826;4.712;2022-07-06T08:37:01;0.73;;;0.73;;
12363;SDS011;6246;50.826;4.712;2022-07-06T08:39:27;0.90;;;0.90;;
12363;SDS011;6246;50.826;4.712;2022-07-06T08:41:53;1.20;;;0.90;;
12363;SDS011;6246;50.826;4.712;2022-07-06T08:44:20;1.47;;;1.10;;
12363;SDS011;6246;50.826;4.712;2022-07-06T08:46:46;1.00;;;0.90;;
12363;SDS011;6246;50.826;4.712;2022-07-06T08:49:16;0.97;;;0.80;;
12363;SDS011;6246;50.826;4.712;2022-07-06T08:51:42;3.10;;;1.10;;
12363;SDS011;6246;50.826;4.712;2022-07-06T08:54:08;1.43;;;1.00;;
12363;SDS011;6246;50.826;4.712;2022-07-06T08:56:36;2.00;;;0.70;;
12363;SDS011;6246;50.826;4.712;2022-07-06T08:59:02;2.33;;;1.00;;
12363;SDS011;6246;50.826;4.712;2022-07-06T09:01:28;3.67;;;1.33;;
12363;SDS011;6246;50.826;4.712;2022-07-06T09:03:55;2.13;;;1.10;;
12363;SDS011;6246;50.826;4.712;2022-07-06T09:06:24;1.83;;;1.23;;
12363;SDS011;6246;50.826;4.712;2022-07-06T09:08:52;1.63;;;1.10;;
12363;SDS011;6246;50.826;4.712;2022-07-06T09:11:19;3.20;;;0.97;;
12363;SDS011;6246;50.826;4.712;2022-07-06T09:13:45;1.60;;;0.80;;
12363;SDS011;6246;50.826;4.712;2022-07-06T09:16:12;1.03;;;0.87;;
12363;SDS011;6246;50.826;4.712;2022-07-06T09:18:39;1.30;;;0.90;;
12363;SDS011;6246;50.826;4.712;2022-07-06T09:21:07;0.83;;;0.67;;
12363;SDS011;6246;50.826;4.712;2022-07-06T09:23:33;2.80;;;1.27;;
12363;SDS011;6246;50.826;4.712;2022-07-06T09:26:03;1.07;;;0.97;;
12363;SDS011;6246;50.826;4.712;2022-07-06T09:28:42;0.70;;;0.70;;
12363;SDS011;6246;50.826;4.712;2022-07-06T09:31:08;1.38;;;0.63;;
12363;SDS011;6246;50.826;4.712;2022-07-06T09:33:34;1.30;;;1.05;;
12363;SDS011;6246;50.826;4.712;2022-07-06T09:36:00;3.07;;;1.23;;
12363;SDS011;6246;50.826;4.712;2022-07-06T09:38:27;1.30;;;0.90;;
12363;SDS011;6246;50.826;4.712;2022-07-06T09:40:53;1.88;;;1.20;;
12363;SDS011;6246;50.826;4.712;2022-07-06T09:45:47;1.25;;;0.80;;
12363;SDS011;6246;50.826;4.712;2022-07-06T09:48:15;1.50;;;1.00;;
12363;SDS011;6246;50.826;4.712;2022-07-06T09:50:47;1.25;;;0.80;;
12363;SDS011;6246;50.826;4.712;2022-07-06T09:53:14;1.55;;;1.00;;
12363;SDS011;6246;50.826;4.712;2022-07-06T09:55:44;0.83;;;0.80;;
12363;SDS011;6246;50.826;4.712;2022-07-06T09:58:11;1.08;;;0.63;;
12363;SDS011;6246;50.826;4.712;2022-07-06T10:00:37;1.33;;;0.80;;
12363;SDS011;6246;50.826;4.712;2022-07-06T10:03:03;1.00;;;0.85;;
12363;SDS011;6246;50.826;4.712;2022-07-06T10:05:30;1.67;;;1.20;;
12363;SDS011;6246;50.826;4.712;2022-07-06T10:07:57;0.70;;;0.70;;
12363;SDS011;6246;50.826;4.712;2022-07-06T10:10:27;0.97;;;0.70;;
12363;SDS011;6246;50.826;4.712;2022-07-06T10:12:54;0.88;;;0.70;;
12363;SDS011;6246;50.826;4.712;2022-07-06T10:15:21;1.90;;;0.95;;
12363;SDS011;6246;50.826;4.712;2022-07-06T10:17:48;1.35;;;0.80;;
12363;SDS011;6246;50.826;4.712;2022-07-06T10:20:15;1.50;;;0.98;;
12363;SDS011;6246;50.826;4.712;2022-07-06T10:22:41;1.20;;;0.90;;
12363;SDS011;6246;50.826;4.712;2022-07-06T10:25:07;0.93;;;0.85;;
12363;SDS011;6246;50.826;4.712;2022-07-06T10:27:33;2.00;;;1.00;;
12363;SDS011;6246;50.826;4.712;2022-07-06T10:30:00;8.63;;;1.93;;
12363;SDS011;6246;50.826;4.712;2022-07-06T10:32:26;5.95;;;1.10;;
12363;SDS011;6246;50.826;4.712;2022-07-06T10:34:53;10.85;;;1.95;;
12363;SDS011;6246;50.826;4.712;2022-07-06T10:37:24;3.55;;;1.42;;
12363;SDS011;6246;50.826;4.712;2022-07-06T10:39:50;6.47;;;1.20;;
12363;SDS011;6246;50.826;4.712;2022-07-06T10:45:12;10.63;;;1.83;;
12363;SDS011;6246;50.826;4.712;2022-07-06T10:47:39;4.88;;;1.45;;
12363;SDS011;6246;50.826;4.712;2022-07-06T10:50:06;2.88;;;1.30;;
12363;SDS011;6246;50.826;4.712;2022-07-06T10:52:51;5.20;;;1.50;;
12363;SDS011;6246;50.826;4.712;2022-07-06T10:55:34;1.83;;;1.10;;
12363;SDS011;6246;50.826;4.712;2022-07-06T10:58:01;2.13;;;1.13;;
12363;SDS011;6246;50.826;4.712;2022-07-06T11:06:00;3.90;;;1.20;;
12363;SDS011;6246;50.826;4.712;2022-07-06T11:11:14;1.70;;;0.75;;
12363;SDS011;6246;50.826;4.712;2022-07-06T11:13:47;2.72;;;0.90;;
12363;SDS011;6246;50.826;4.712;2022-07-06T11:16:14;1.15;;;1.05;;
12363;SDS011;6246;50.826;4.712;2022-07-06T11:18:41;4.32;;;1.15;;
12363;SDS011;6246;50.826;4.712;2022-07-06T11:21:17;6.10;;;1.33;;
12363;SDS011;6246;50.826;4.712;2022-07-06T11:23:45;2.83;;;1.17;;
12363;SDS011;6246;50.826;4.712;2022-07-06T11:26:12;3.85;;;1.48;;
12363;SDS011;6246;50.826;4.712;2022-07-06T11:28:38;2.10;;;1.40;;
12363;SDS011;6246;50.826;4.712;2022-07-06T11:31:04;6.60;;;1.25;;
12363;SDS011;6246;50.826;4.712;2022-07-06T11:33:31;4.60;;;1.45;;
12363;SDS011;6246;50.826;4.712;2022-07-06T11:36:30;1.67;;;0.90;;
12363;SDS011;6246;50.826;4.712;2022-07-06T11:38:49;4.07;;;1.55;;
12363;SDS011;6246;50.826;4.712;2022-07-06T11:41:16;3.33;;;1.30;;
12363;SDS011;6246;50.826;4.712;2022-07-06T11:43:43;2.50;;;1.35;;
12363;SDS011;6246;50.826;4.712;2022-07-06T11:48:52;4.38;;;1.08;;
12363;SDS011;6246;50.826;4.712;2022-07-06T11:51:18;4.75;;;1.50;;
12363;SDS011;6246;50.826;4.712;2022-07-06T11:53:45;2.05;;;1.38;;
12363;SDS011;6246;50.826;4.712;2022-07-06T11:56:12;3.65;;;1.58;;
12363;SDS011;6246;50.826;4.712;2022-07-06T11:58:38;4.63;;;1.40;;
12363;SDS011;6246;50.826;4.712;2022-07-06T12:01:06;3.80;;;1.33;;
12363;SDS011;6246;50.826;4.712;2022-07-06T12:03:32;3.45;;;1.30;;
12363;SDS011;6246;50.826;4.712;2022-07-06T12:06:00;4.30;;;1.50;;
12363;SDS011;6246;50.826;4.712;2022-07-06T12:08:26;1.80;;;1.10;;
12363;SDS011;6246;50.826;4.712;2022-07-06T12:10:52;3.22;;;1.13;;
12363;SDS011;6246;50.826;4.712;2022-07-06T12:13:19;3.85;;;1.35;;
12363;SDS011;6246;50.826;4.712;2022-07-06T12:15:45;3.88;;;1.75;;
12363;SDS011;6246;50.826;4.712;2022-07-06T12:18:11;3.25;;;1.40;;
12363;SDS011;6246;50.826;4.712;2022-07-06T12:20:37;2.33;;;1.58;;
12363;SDS011;6246;50.826;4.712;2022-07-06T12:23:04;3.00;;;1.25;;
12363;SDS011;6246;50.826;4.712;2022-07-06T12:25:34;7.32;;;1.77;;
12363;SDS011;6246;50.826;4.712;2022-07-06T12:28:00;3.97;;;1.05;;
12363;SDS011;6246;50.826;4.712;2022-07-06T12:30:26;2.85;;;1.15;;
12363;SDS011;6246;50.826;4.712;2022-07-06T12:35:51;4.72;;;1.20;;
12363;SDS011;6246;50.826;4.712;2022-07-06T12:38:26;2.63;;;1.00;;
12363;SDS011;6246;50.826;4.712;2022-07-06T12:40:54;2.83;;;1.27;;
12363;SDS011;6246;50.826;4.712;2022-07-06T12:43:40;3.30;;;1.23;;
12363;SDS011;6246;50.826;4.712;2022-07-06T12:48:51;3.97;;;1.10;;
12363;SDS011;6246;50.826;4.712;2022-07-06T12:51:18;3.92;;;1.40;;
12363;SDS011;6246;50.826;4.712;2022-07-06T12:53:44;3.65;;;1.58;;
12363;SDS011;6246;50.826;4.712;2022-07-06T12:56:10;2.55;;;1.30;;
12363;SDS011;6246;50.826;4.712;2022-07-06T12:58:37;2.55;;;0.82;;
12363;SDS011;6246;50.826;4.712;2022-07-06T13:01:03;3.95;;;1.33;;
12363;SDS011;6246;50.826;4.712;2022-07-06T13:03:37;3.40;;;1.33;;
12363;SDS011;6246;50.826;4.712;2022-07-06T13:06:04;2.25;;;1.30;;
12363;SDS011;6246;50.826;4.712;2022-07-06T13:08:30;1.20;;;1.10;;
12363;SDS011;6246;50.826;4.712;2022-07-06T13:10:57;1.67;;;1.27;;
12363;SDS011;6246;50.826;4.712;2022-07-06T13:13:23;3.85;;;0.90;;
12363;SDS011;6246;50.826;4.712;2022-07-06T13:15:49;3.38;;;1.20;;
12363;SDS011;6246;50.826;4.712;2022-07-06T13:18:15;1.13;;;1.02;;
12363;SDS011;6246;50.826;4.712;2022-07-06T13:20:43;2.47;;;1.30;;
12363;SDS011;6246;50.826;4.712;2022-07-06T13:23:10;3.22;;;1.10;;
12363;SDS011;6246;50.826;4.712;2022-07-06T13:25:36;1.40;;;1.08;;
12363;SDS011;6246;50.826;4.712;2022-07-06T13:28:02;2.33;;;1.50;;
12363;SDS011;6246;50.826;4.712;2022-07-06T13:30:28;3.70;;;0.90;;
12363;SDS011;6246;50.826;4.712;2022-07-06T13:32:54;2.35;;;1.10;;
12363;SDS011;6246;50.826;4.712;2022-07-06T13:35:21;1.30;;;1.10;;
12363;SDS011;6246;50.826;4.712;2022-07-06T13:37:47;2.05;;;1.20;;
12363;SDS011;6246;50.826;4.712;2022-07-06T13:40:15;4.38;;;1.10;;
12363;SDS011;6246;50.826;4.712;2022-07-06T13:42:41;1.50;;;1.02;;
12363;SDS011;6246;50.826;4.712;2022-07-06T13:45:07;1.05;;;1.00;;
12363;SDS011;6246;50.826;4.712;2022-07-06T13:47:34;2.65;;;1.20;;
12363;SDS011;6246;50.826;4.712;2022-07-06T13:50:00;4.22;;;1.40;;
12363;SDS011;6246;50.826;4.712;2022-07-06T13:52:26;2.58;;;1.10;;
12363;SDS011;6246;50.826;4.712;2022-07-06T13:54:52;3.03;;;1.30;;
12363;SDS011;6246;50.826;4.712;2022-07-06T13:57:18;2.22;;;1.42;;
12363;SDS011;6246;50.826;4.712;2022-07-06T13:59:44;6.38;;;1.65;;
12363;SDS011;6246;50.826;4.712;2022-07-06T14:02:12;3.25;;;1.50;;
12363;SDS011;6246;50.826;4.712;2022-07-06T14:04:38;2.28;;;1.23;;
12363;SDS011;6246;50.826;4.712;2022-07-06T14:07:04;1.75;;;1.10;;
12363;SDS011;6246;50.826;4.712;2022-07-06T14:09:30;1.95;;;1.35;;
12363;SDS011;6246;50.826;4.712;2022-07-06T14:11:56;4.43;;;1.35;;
12363;SDS011;6246;50.826;4.712;2022-07-06T14:14:22;1.85;;;1.17;;
12363;SDS011;6246;50.826;4.712;2022-07-06T14:16:48;3.03;;;1.40;;
12363;SDS011;6246;50.826;4.712;2022-07-06T14:19:16;2.20;;;1.13;;
12363;SDS011;6246;50.826;4.712;2022-07-06T14:21:42;2.55;;;1.10;;
12363;SDS011;6246;50.826;4.712;2022-07-06T14:24:09;1.30;;;1.20;;
12363;SDS011;6246;50.826;4.712;2022-07-06T14:26:35;1.35;;;1.10;;
12363;SDS011;6246;50.826;4.712;2022-07-06T14:29:01;2.42;;;1.20;;
12363;SDS011;6246;50.826;4.712;2022-07-06T14:31:27;2.60;;;1.17;;
12363;SDS011;6246;50.826;4.712;2022-07-06T14:33:53;1.40;;;1.30;;
12363;SDS011;6246;50.826;4.712;2022-07-06T14:36:19;1.38;;;1.08;;
12363;SDS011;6246;50.826;4.712;2022-07-06T14:38:46;1.58;;;1.27;;
12363;SDS011;6246;50.826;4.712;2022-07-06T14:41:12;2.03;;;1.48;;
12363;SDS011;6246;50.826;4.712;2022-07-06T14:43:39;1.88;;;1.52;;
12363;SDS011;6246;50.826;4.712;2022-07-06T14:46:05;2.08;;;0.88;;
12363;SDS011;6246;50.826;4.712;2022-07-06T14:48:31;1.15;;;0.90;;
12363;SDS011;6246;50.826;4.712;2022-07-06T14:50:57;2.60;;;1.25;;
12363;SDS011;6246;50.826;4.712;2022-07-06T14:53:23;1.42;;;1.33;;
12363;SDS011;6246;50.826;4.712;2022-07-06T14:55:49;3.00;;;1.30;;
12363;SDS011;6246;50.826;4.712;2022-07-06T14:58:15;1.80;;;0.90;;
12363;SDS011;6246;50.826;4.712;2022-07-06T15:00:47;3.65;;;1.15;;
12363;SDS011;6246;50.826;4.712;2022-07-06T15:03:13;2.65;;;1.30;;
12363;SDS011;6246;50.826;4.712;2022-07-06T15:05:39;1.08;;;0.98;;
12363;SDS011;6246;50.826;4.712;2022-07-06T15:08:08;1.23;;;1.10;;
12363;SDS011;6246;50.826;4.712;2022-07-06T15:10:34;1.33;;;1.23;;
12363;SDS011;6246;50.826;4.712;2022-07-06T15:13:00;1.27;;;1.15;;
12363;SDS011;6246;50.826;4.712;2022-07-06T15:15:30;2.35;;;1.10;;
12363;SDS011;6246;50.826;4.712;2022-07-06T15:17:56;2.70;;;1.00;;
12363;SDS011;6246;50.826;4.712;2022-07-06T15:20:25;3.95;;;1.30;;
12363;SDS011;6246;50.826;4.712;2022-07-06T15:22:51;4.72;;;1.30;;